sensor_id;sensor_type;location;lat;lon;timestamp;pressure;altitude;pressure_sealevel;temperature;humidity
25350;BME280;13302;48.796;11.978;2023-02-19T00:01:57;97236.94;;;11.46;41.08
25350;BME280;13302;48.796;11.978;2023-02-19T00:04:44;97233.47;;;11.49;40.92
25350;BME280;13302;48.796;11.978;2023-02-19T00:07:31;97229.56;;;11.50;41.08
25350;BME280;13302;48.796;11.978;2023-02-19T00:10:18;97222.41;;;11.49;41.18
25350;BME280;13302;48.796;11.978;2023-02-19T00:13:05;97220.81;;;11.48;41.13
25350;BME280;13302;48.796;11.978;2023-02-19T00:15:52;97215.28;;;11.48;41.26
25350;BME280;13302;48.796;11.978;2023-02-19T00:18:40;97214.78;;;11.46;41.20
25350;BME280;13302;48.796;11.978;2023-02-19T00:21:28;97204.19;;;11.48;41.11
25350;BME280;13302;48.796;11.978;2023-02-19T00:24:16;97202.22;;;11.49;41.42
25350;BME280;13302;48.796;11.978;2023-02-19T00:27:03;97203.50;;;11.51;41.21
25350;BME280;13302;48.796;11.978;2023-02-19T00:29:50;97202.38;;;11.53;41.33
25350;BME280;13302;48.796;11.978;2023-02-19T00:32:38;97205.44;;;11.51;41.27
25350;BME280;13302;48.796;11.978;2023-02-19T00:35:28;97201.44;;;11.48;41.12
25350;BME280;13302;48.796;11.978;2023-02-19T00:38:15;97200.16;;;11.46;41.39
25350;BME280;13302;48.796;11.978;2023-02-19T00:41:03;97199.34;;;11.45;41.49
25350;BME280;13302;48.796;11.978;2023-02-19T00:44:06;97195.75;;;11.45;41.72
25350;BME280;13302;48.796;11.978;2023-02-19T00:46:53;97190.22;;;11.45;41.83
25350;BME280;13302;48.796;11.978;2023-02-19T00:49:40;97193.34;;;11.43;41.85
25350;BME280;13302;48.796;11.978;2023-02-19T00:52:27;97191.41;;;11.44;41.93
25350;BME280;13302;48.796;11.978;2023-02-19T00:55:14;97195.75;;;11.45;41.96
25350;BME280;13302;48.796;11.978;2023-02-19T00:58:02;97195.31;;;11.43;42.11
25350;BME280;13302;48.796;11.978;2023-02-19T01:00:48;97184.25;;;11.43;42.23
25350;BME280;13302;48.796;11.978;2023-02-19T01:03:37;97192.88;;;11.41;42.27
25350;BME280;13302;48.796;11.978;2023-02-19T01:06:24;97186.09;;;11.39;42.31
25350;BME280;13302;48.796;11.978;2023-02-19T01:09:11;97180.09;;;11.37;42.43
25350;BME280;13302;48.796;11.978;2023-02-19T01:12:00;97180.44;;;11.35;42.41
25350;BME280;13302;48.796;11.978;2023-02-19T01:14:47;97174.09;;;11.35;42.50
25350;BME280;13302;48.796;11.978;2023-02-19T01:17:34;97179.16;;;11.33;42.81
25350;BME280;13302;48.796;11.978;2023-02-19T01:20:22;97169.63;;;11.30;42.85
25350;BME280;13302;48.796;11.978;2023-02-19T01:23:10;97171.56;;;11.30;42.66
25350;BME280;13302;48.796;11.978;2023-02-19T01:25:58;97170.75;;;11.29;42.93
25350;BME280;13302;48.796;11.978;2023-02-19T01:28:45;97156.91;;;11.29;42.96
25350;BME280;13302;48.796;11.978;2023-02-19T01:31:32;97161.66;;;11.29;42.88
25350;BME280;13302;48.796;11.978;2023-02-19T01:34:20;97146.56;;;11.26;42.88
25350;BME280;13302;48.796;11.978;2023-02-19T01:37:08;97131.09;;;11.25;42.95
25350;BME280;13302;48.796;11.978;2023-02-19T01:39:58;97142.53;;;11.24;43.28
25350;BME280;13302;48.796;11.978;2023-02-19T01:42:45;97134.22;;;11.24;43.24
25350;BME280;13302;48.796;11.978;2023-02-19T01:45:35;97130.66;;;11.23;43.39
25350;BME280;13302;48.796;11.978;2023-02-19T01:48:31;97125.03;;;11.20;43.33
25350;BME280;13302;48.796;11.978;2023-02-19T01:51:22;97116.25;;;11.18;43.38
25350;BME280;13302;48.796;11.978;2023-02-19T01:54:11;97115.81;;;11.16;43.18
25350;BME280;13302;48.796;11.978;2023-02-19T01:57:01;97115.81;;;11.16;43.48
25350;BME280;13302;48.796;11.978;2023-02-19T01:59:54;97117.75;;;11.15;43.56
25350;BME280;13302;48.796;11.978;2023-02-19T02:02:47;97113.38;;;11.14;43.23
25350;BME280;13302;48.796;11.978;2023-02-19T02:05:43;97108.97;;;11.13;43.36
25350;BME280;13302;48.796;11.978;2023-02-19T02:08:32;97110.13;;;11.12;43.43
25350;BME280;13302;48.796;11.978;2023-02-19T02:11:50;97106.44;;;11.08;43.59
25350;BME280;13302;48.796;11.978;2023-02-19T02:14:41;97096.56;;;11.07;43.54
25350;BME280;13302;48.796;11.978;2023-02-19T02:17:48;97091.69;;;11.04;43.51
25350;BME280;13302;48.796;11.978;2023-02-19T02:20:57;97088.38;;;10.98;43.48
25350;BME280;13302;48.796;11.978;2023-02-19T02:30:14;97079.41;;;10.89;43.97
25350;BME280;13302;48.796;11.978;2023-02-19T02:36:19;97062.47;;;10.91;43.66
25350;BME280;13302;48.796;11.978;2023-02-19T02:39:11;97062.81;;;10.89;43.77
25350;BME280;13302;48.796;11.978;2023-02-19T02:41:59;97059.22;;;10.89;43.69
25350;BME280;13302;48.796;11.978;2023-02-19T02:48:43;97067.66;;;10.80;43.93
25350;BME280;13302;48.796;11.978;2023-02-19T02:51:35;97058.56;;;10.80;43.96
25350;BME280;13302;48.796;11.978;2023-02-19T02:54:32;97035.63;;;10.79;44.02
25350;BME280;13302;48.796;11.978;2023-02-19T02:57:41;97025.03;;;10.81;44.01
25350;BME280;13302;48.796;11.978;2023-02-19T03:00:30;97011.19;;;10.81;44.04
25350;BME280;13302;48.796;11.978;2023-02-19T03:03:41;97004.53;;;10.82;43.74
25350;BME280;13302;48.796;11.978;2023-02-19T03:06:31;97006.91;;;10.84;43.65
25350;BME280;13302;48.796;11.978;2023-02-19T03:09:31;97015.22;;;10.84;43.81
25350;BME280;13302;48.796;11.978;2023-02-19T03:12:28;97016.41;;;10.83;43.60
25350;BME280;13302;48.796;11.978;2023-02-19T03:15:43;97006.38;;;10.78;43.65
25350;BME280;13302;48.796;11.978;2023-02-19T03:18:52;97000.38;;;10.76;43.91
25350;BME280;13302;48.796;11.978;2023-02-19T03:22:11;96999.94;;;10.74;43.67
25350;BME280;13302;48.796;11.978;2023-02-19T03:25:13;97006.59;;;10.73;43.93
25350;BME280;13302;48.796;11.978;2023-02-19T03:28:25;96993.59;;;10.74;43.67
25350;BME280;13302;48.796;11.978;2023-02-19T03:31:33;96996.34;;;10.74;43.83
25350;BME280;13302;48.796;11.978;2023-02-19T03:34:24;97009.38;;;10.73;44.04
25350;BME280;13302;48.796;11.978;2023-02-19T03:37:23;97006.94;;;10.72;43.87
25350;BME280;13302;48.796;11.978;2023-02-19T03:40:12;96993.94;;;10.72;43.89
25350;BME280;13302;48.796;11.978;2023-02-19T03:43:23;96992.22;;;10.68;44.08
25350;BME280;13302;48.796;11.978;2023-02-19T03:46:15;97001.78;;;10.70;44.14
25350;BME280;13302;48.796;11.978;2023-02-19T03:49:17;96981.16;;;10.68;43.98
25350;BME280;13302;48.796;11.978;2023-02-19T03:52:17;97001.31;;;10.68;43.87
25350;BME280;13302;48.796;11.978;2023-02-19T03:55:16;97003.28;;;10.68;44.17
25350;BME280;13302;48.796;11.978;2023-02-19T03:58:23;96996.94;;;10.67;43.98
25350;BME280;13302;48.796;11.978;2023-02-19T04:01:30;97000.06;;;10.66;44.22
25350;BME280;13302;48.796;11.978;2023-02-19T04:04:26;96998.88;;;10.67;44.01
25350;BME280;13302;48.796;11.978;2023-02-19T04:07:15;97003.28;;;10.68;44.16
25350;BME280;13302;48.796;11.978;2023-02-19T04:10:03;97002.81;;;10.66;44.09
25350;BME280;13302;48.796;11.978;2023-02-19T04:12:58;97001.22;;;10.65;44.32
25350;BME280;13302;48.796;11.978;2023-02-19T04:15:50;97001.22;;;10.65;44.35
25350;BME280;13302;48.796;11.978;2023-02-19T04:18:40;97003.50;;;10.63;44.10
25350;BME280;13302;48.796;11.978;2023-02-19T04:21:29;96997.97;;;10.63;44.11
25350;BME280;13302;48.796;11.978;2023-02-19T04:24:33;96990.97;;;10.65;44.09
25350;BME280;13302;48.796;11.978;2023-02-19T04:27:22;96989.00;;;10.66;44.43
25350;BME280;13302;48.796;11.978;2023-02-19T04:30:10;96997.28;;;10.66;44.36
25350;BME280;13302;48.796;11.978;2023-02-19T04:32:57;96987.50;;;10.68;44.41
25350;BME280;13302;48.796;11.978;2023-02-19T04:35:45;96994.53;;;10.66;44.23
25350;BME280;13302;48.796;11.978;2023-02-19T04:38:31;96989.00;;;10.66;44.12
25350;BME280;13302;48.796;11.978;2023-02-19T04:41:19;96999.69;;;10.67;44.15
25350;BME280;13302;48.796;11.978;2023-02-19T04:44:06;97003.38;;;10.71;44.39
25350;BME280;13302;48.796;11.978;2023-02-19T04:46:53;97001.41;;;10.72;44.31
25350;BME280;13302;48.796;11.978;2023-02-19T04:49:40;97008.56;;;10.73;44.12
25350;BME280;13302;48.796;11.978;2023-02-19T04:52:27;97002.56;;;10.71;44.41
25350;BME280;13302;48.796;11.978;2023-02-19T04:55:14;97012.38;;;10.68;44.15
25350;BME280;13302;48.796;11.978;2023-02-19T04:58:01;97015.47;;;10.67;44.08
25350;BME280;13302;48.796;11.978;2023-02-19T05:00:52;97015.03;;;10.65;44.23
25350;BME280;13302;48.796;11.978;2023-02-19T05:03:39;97018.25;;;10.67;44.10
25350;BME280;13302;48.796;11.978;2023-02-19T05:06:26;97021.00;;;10.67;44.28
25350;BME280;13302;48.796;11.978;2023-02-19T05:09:13;97012.25;;;10.65;44.37
25350;BME280;13302;48.796;11.978;2023-02-19T05:12:00;97004.78;;;10.65;44.21
25350;BME280;13302;48.796;11.978;2023-02-19T05:14:47;97012.72;;;10.67;44.38
25350;BME280;13302;48.796;11.978;2023-02-19T05:17:34;97018.72;;;10.69;44.38
25350;BME280;13302;48.796;11.978;2023-02-19T05:20:21;97024.69;;;10.71;44.33
25350;BME280;13302;48.796;11.978;2023-02-19T05:23:08;97031.38;;;10.70;44.28
25350;BME280;13302;48.796;11.978;2023-02-19T05:25:56;97026.66;;;10.70;44.38
25350;BME280;13302;48.796;11.978;2023-02-19T05:28:44;97031.38;;;10.70;44.19
25350;BME280;13302;48.796;11.978;2023-02-19T05:31:32;97031.72;;;10.68;44.49
25350;BME280;13302;48.796;11.978;2023-02-19T05:34:19;97032.06;;;10.67;44.11
25350;BME280;13302;48.796;11.978;2023-02-19T05:37:06;97029.28;;;10.67;44.27
25350;BME280;13302;48.796;11.978;2023-02-19T05:39:53;97038.78;;;10.66;44.32
25350;BME280;13302;48.796;11.978;2023-02-19T05:42:40;97033.25;;;10.66;44.39
25350;BME280;13302;48.796;11.978;2023-02-19T05:45:27;97037.16;;;10.65;44.35
25350;BME280;13302;48.796;11.978;2023-02-19T05:48:14;97042.69;;;10.65;44.51
25350;BME280;13302;48.796;11.978;2023-02-19T05:51:11;97043.00;;;10.63;44.36
25350;BME280;13302;48.796;11.978;2023-02-19T05:53:58;97047.72;;;10.63;44.60
25350;BME280;13302;48.796;11.978;2023-02-19T05:56:45;97041.44;;;10.62;44.70
25350;BME280;13302;48.796;11.978;2023-02-19T05:59:32;97044.19;;;10.62;44.39
25350;BME280;13302;48.796;11.978;2023-02-19T06:02:19;97044.19;;;10.62;44.51
25350;BME280;13302;48.796;11.978;2023-02-19T06:05:07;97048.09;;;10.61;44.42
25350;BME280;13302;48.796;11.978;2023-02-19T06:07:54;97043.72;;;10.60;44.45
25350;BME280;13302;48.796;11.978;2023-02-19T06:10:42;97044.84;;;10.59;44.73
25350;BME280;13302;48.796;11.978;2023-02-19T06:13:29;97050.38;;;10.59;44.55
25350;BME280;13302;48.796;11.978;2023-02-19T06:16:17;97059.84;;;10.58;44.67
25350;BME280;13302;48.796;11.978;2023-02-19T06:19:04;97067.34;;;10.57;44.63
25350;BME280;13302;48.796;11.978;2023-02-19T06:21:51;97070.09;;;10.57;44.46
25350;BME280;13302;48.796;11.978;2023-02-19T06:24:38;97068.94;;;10.58;44.87
25350;BME280;13302;48.796;11.978;2023-02-19T06:27:25;97074.47;;;10.58;44.62
25350;BME280;13302;48.796;11.978;2023-02-19T06:30:12;97077.22;;;10.58;44.63
25350;BME280;13302;48.796;11.978;2023-02-19T06:32:59;97074.47;;;10.58;44.65
25350;BME280;13302;48.796;11.978;2023-02-19T06:35:46;97091.38;;;10.57;44.56
25350;BME280;13302;48.796;11.978;2023-02-19T06:38:33;97077.56;;;10.57;44.62
25350;BME280;13302;48.796;11.978;2023-02-19T06:41:20;97070.41;;;10.56;44.54
25350;BME280;13302;48.796;11.978;2023-02-19T06:44:07;97085.03;;;10.56;44.48
25350;BME280;13302;48.796;11.978;2023-02-19T06:46:54;97088.13;;;10.55;44.47
25350;BME280;13302;48.796;11.978;2023-02-19T06:49:41;97087.31;;;10.54;44.37
25350;BME280;13302;48.796;11.978;2023-02-19T06:52:28;97082.97;;;10.53;44.35
25350;BME280;13302;48.796;11.978;2023-02-19T06:55:15;97087.69;;;10.53;44.24
25350;BME280;13302;48.796;11.978;2023-02-19T06:58:02;97094.25;;;10.48;44.28
25350;BME280;13302;48.796;11.978;2023-02-19T07:00:49;97079.97;;;10.46;44.23
25350;BME280;13302;48.796;11.978;2023-02-19T07:03:37;97086.50;;;10.42;44.03
25350;BME280;13302;48.796;11.978;2023-02-19T07:06:25;97087.22;;;10.39;44.25
25350;BME280;13302;48.796;11.978;2023-02-19T07:09:12;97089.88;;;10.35;44.19
25350;BME280;13302;48.796;11.978;2023-02-19T07:11:59;97108.41;;;10.35;44.43
25350;BME280;13302;48.796;11.978;2023-02-19T07:14:46;97107.94;;;10.33;44.24
25350;BME280;13302;48.796;11.978;2023-02-19T07:17:34;97121.75;;;10.33;44.40
25350;BME280;13302;48.796;11.978;2023-02-19T07:20:21;97126.47;;;10.32;44.01
25350;BME280;13302;48.796;11.978;2023-02-19T07:23:08;97130.88;;;10.33;43.91
25350;BME280;13302;48.796;11.978;2023-02-19T07:25:55;97131.31;;;10.35;43.71
25350;BME280;13302;48.796;11.978;2023-02-19T07:28:43;97141.22;;;10.36;43.80
25350;BME280;13302;48.796;11.978;2023-02-19T07:31:31;97148.38;;;10.37;43.78
25350;BME280;13302;48.796;11.978;2023-02-19T07:34:18;97155.38;;;10.35;43.61
25350;BME280;13302;48.796;11.978;2023-02-19T07:37:05;97159.28;;;10.34;43.51
25350;BME280;13302;48.796;11.978;2023-02-19T07:39:52;97160.09;;;10.34;43.57
25350;BME280;13302;48.796;11.978;2023-02-19T07:42:39;97159.75;;;10.36;43.43
25350;BME280;13302;48.796;11.978;2023-02-19T07:45:26;97181.53;;;10.37;43.42
25350;BME280;13302;48.796;11.978;2023-02-19T07:48:13;97190.16;;;10.36;43.15
25350;BME280;13302;48.796;11.978;2023-02-19T07:51:01;97189.34;;;10.35;43.31
25350;BME280;13302;48.796;11.978;2023-02-19T07:53:49;97192.59;;;10.37;43.27
25350;BME280;13302;48.796;11.978;2023-02-19T07:56:36;97197.75;;;10.39;43.31
25350;BME280;13302;48.796;11.978;2023-02-19T07:59:23;97191.09;;;10.40;43.25
25350;BME280;13302;48.796;11.978;2023-02-19T08:02:16;97199.06;;;10.41;43.05
25350;BME280;13302;48.796;11.978;2023-02-19T08:05:22;97205.84;;;10.44;43.12
25350;BME280;13302;48.796;11.978;2023-02-19T08:08:11;97197.53;;;10.44;43.17
25350;BME280;13302;48.796;11.978;2023-02-19T08:11:00;97206.28;;;10.46;42.92
25350;BME280;13302;48.796;11.978;2023-02-19T08:14:06;97228.41;;;10.46;42.87
25350;BME280;13302;48.796;11.978;2023-02-19T08:16:53;97210.34;;;10.48;42.93
25350;BME280;13302;48.796;11.978;2023-02-19T08:19:41;97223.84;;;10.50;42.93
25350;BME280;13302;48.796;11.978;2023-02-19T08:22:28;97217.13;;;10.51;42.73
25350;BME280;13302;48.796;11.978;2023-02-19T08:25:15;97223.47;;;10.51;42.40
25350;BME280;13302;48.796;11.978;2023-02-19T08:28:03;97224.63;;;10.50;42.68
25350;BME280;13302;48.796;11.978;2023-02-19T08:30:50;97222.22;;;10.49;42.64
25350;BME280;13302;48.796;11.978;2023-02-19T08:33:38;97235.22;;;10.48;42.46
25350;BME280;13302;48.796;11.978;2023-02-19T08:36:25;97233.72;;;10.51;42.36
25350;BME280;13302;48.796;11.978;2023-02-19T08:39:13;97241.34;;;10.54;42.54
25350;BME280;13302;48.796;11.978;2023-02-19T08:42:00;97239.72;;;10.53;42.47
25350;BME280;13302;48.796;11.978;2023-02-19T08:44:47;97238.09;;;10.52;42.13
25350;BME280;13302;48.796;11.978;2023-02-19T08:47:34;97227.53;;;10.54;42.18
25350;BME280;13302;48.796;11.978;2023-02-19T08:50:22;97216.81;;;10.52;42.14
25350;BME280;13302;48.796;11.978;2023-02-19T08:53:09;97238.09;;;10.52;41.97
25350;BME280;13302;48.796;11.978;2023-02-19T08:55:56;97241.69;;;10.52;41.82
25350;BME280;13302;48.796;11.978;2023-02-19T08:58:43;97243.97;;;10.50;41.88
25350;BME280;13302;48.796;11.978;2023-02-19T09:01:30;97234.19;;;10.53;42.24
25350;BME280;13302;48.796;11.978;2023-02-19T09:04:17;97233.50;;;10.56;42.12
25350;BME280;13302;48.796;11.978;2023-02-19T09:07:05;97231.25;;;10.58;41.72
25350;BME280;13302;48.796;11.978;2023-02-19T09:09:57;97249.44;;;10.59;41.75
25350;BME280;13302;48.796;11.978;2023-02-19T09:12:44;97241.63;;;10.61;41.79
25350;BME280;13302;48.796;11.978;2023-02-19T09:15:31;97235.72;;;10.63;41.48
25350;BME280;13302;48.796;11.978;2023-02-19T09:18:19;97246.47;;;10.64;41.35
25350;BME280;13302;48.796;11.978;2023-02-19T09:21:06;97249.22;;;10.64;41.51
25350;BME280;13302;48.796;11.978;2023-02-19T09:23:53;97245.66;;;10.64;41.58
25350;BME280;13302;48.796;11.978;2023-02-19T09:26:40;97255.91;;;10.63;41.27
25350;BME280;13302;48.796;11.978;2023-02-19T09:29:27;97249.56;;;10.63;41.37
25350;BME280;13302;48.796;11.978;2023-02-19T09:32:14;97246.13;;;10.66;41.37
25350;BME280;13302;48.796;11.978;2023-02-19T09:35:04;97258.78;;;10.67;41.43
25350;BME280;13302;48.796;11.978;2023-02-19T09:37:51;97254.06;;;10.67;41.60
25350;BME280;13302;48.796;11.978;2023-02-19T09:40:39;97262.47;;;10.71;41.19
25350;BME280;13302;48.796;11.978;2023-02-19T09:43:27;97263.28;;;10.71;41.24
25350;BME280;13302;48.796;11.978;2023-02-19T09:46:27;97277.81;;;10.68;41.24
25350;BME280;13302;48.796;11.978;2023-02-19T09:49:30;97279.75;;;10.68;41.24
25350;BME280;13302;48.796;11.978;2023-02-19T09:52:35;97281.25;;;10.65;40.93
25350;BME280;13302;48.796;11.978;2023-02-19T09:55:34;97289.44;;;10.62;41.09
25350;BME280;13302;48.796;11.978;2023-02-19T09:58:34;97293.00;;;10.62;41.30
25350;BME280;13302;48.796;11.978;2023-02-19T10:01:24;97313.16;;;10.63;40.85
25350;BME280;13302;48.796;11.978;2023-02-19T10:04:12;97300.13;;;10.63;40.82
25350;BME280;13302;48.796;11.978;2023-02-19T10:06:59;97301.31;;;10.62;41.02
25350;BME280;13302;48.796;11.978;2023-02-19T10:09:57;97302.44;;;10.61;40.99
25350;BME280;13302;48.796;11.978;2023-02-19T10:12:48;97307.63;;;10.63;41.04
25350;BME280;13302;48.796;11.978;2023-02-19T10:15:52;97313.16;;;10.63;40.72
25350;BME280;13302;48.796;11.978;2023-02-19T10:18:42;97320.66;;;10.62;40.77
25350;BME280;13302;48.796;11.978;2023-02-19T10:21:30;97306.03;;;10.62;40.46
25350;BME280;13302;48.796;11.978;2023-02-19T10:24:20;97324.44;;;10.57;40.60
25350;BME280;13302;48.796;11.978;2023-02-19T10:27:11;97323.91;;;10.55;40.55
25350;BME280;13302;48.796;11.978;2023-02-19T10:29:59;97309.28;;;10.55;40.62
25350;BME280;13302;48.796;11.978;2023-02-19T10:33:18;97317.94;;;10.53;40.51
25350;BME280;13302;48.796;11.978;2023-02-19T10:36:09;97325.88;;;10.55;40.42
25350;BME280;13302;48.796;11.978;2023-02-19T10:42:18;97313.56;;;10.52;40.69
25350;BME280;13302;48.796;11.978;2023-02-19T10:45:16;97316.78;;;10.54;40.63
25350;BME280;13302;48.796;11.978;2023-02-19T10:48:05;97323.91;;;10.55;40.87
25350;BME280;13302;48.796;11.978;2023-02-19T10:50:57;97315.78;;;10.59;40.77
25350;BME280;13302;48.796;11.978;2023-02-19T10:53:47;97336.88;;;10.64;40.76
25350;BME280;13302;48.796;11.978;2023-02-19T10:56:35;97323.19;;;10.67;40.61
25350;BME280;13302;48.796;11.978;2023-02-19T10:59:27;97336.34;;;10.70;40.55
25350;BME280;13302;48.796;11.978;2023-02-19T11:02:16;97340.38;;;10.73;40.80
25350;BME280;13302;48.796;11.978;2023-02-19T11:07:57;97351.56;;;10.76;40.12
25350;BME280;13302;48.796;11.978;2023-02-19T11:10:46;97336.59;;;10.77;40.07
25350;BME280;13302;48.796;11.978;2023-02-19T11:13:34;97354.34;;;10.76;40.23
25350;BME280;13302;48.796;11.978;2023-02-19T11:16:39;97348.34;;;10.74;40.18
25350;BME280;13302;48.796;11.978;2023-02-19T11:19:34;97349.28;;;10.78;40.04
25350;BME280;13302;48.796;11.978;2023-02-19T11:22:34;97351.13;;;10.74;40.00
25350;BME280;13302;48.796;11.978;2023-02-19T11:25:23;97359.41;;;10.74;39.98
25350;BME280;13302;48.796;11.978;2023-02-19T11:37:12;97367.34;;;10.76;39.91
25350;BME280;13302;48.796;11.978;2023-02-19T11:40:00;97356.41;;;10.79;39.79
25350;BME280;13302;48.796;11.978;2023-02-19T11:42:53;97352.06;;;10.78;39.97
25350;BME280;13302;48.796;11.978;2023-02-19T11:46:01;97350.06;;;10.79;39.88
25350;BME280;13302;48.796;11.978;2023-02-19T11:49:02;97361.13;;;10.79;39.82
25350;BME280;13302;48.796;11.978;2023-02-19T11:52:02;97351.38;;;10.81;39.49
25350;BME280;13302;48.796;11.978;2023-02-19T11:55:20;97360.81;;;10.80;39.81
25350;BME280;13302;48.796;11.978;2023-02-19T11:58:35;97359.53;;;10.78;39.83
25350;BME280;13302;48.796;11.978;2023-02-19T12:01:56;97352.06;;;10.78;39.50
25350;BME280;13302;48.796;11.978;2023-02-19T12:04:54;97352.06;;;10.78;39.42
25350;BME280;13302;48.796;11.978;2023-02-19T12:16:46;97346.59;;;10.70;39.57
25350;BME280;13302;48.796;11.978;2023-02-19T12:19:51;97366.63;;;10.67;39.53
25350;BME280;13302;48.796;11.978;2023-02-19T12:25:52;97364.78;;;10.71;39.50
25350;BME280;13302;48.796;11.978;2023-02-19T12:29:20;97367.22;;;10.72;39.75
25350;BME280;13302;48.796;11.978;2023-02-19T12:35:28;97368.50;;;10.75;39.56
25350;BME280;13302;48.796;11.978;2023-02-19T12:38:25;97370.94;;;10.76;39.18
25350;BME280;13302;48.796;11.978;2023-02-19T12:44:18;97368.97;;;10.77;39.28
25350;BME280;13302;48.796;11.978;2023-02-19T12:47:16;97380.72;;;10.74;39.00
25350;BME280;13302;48.796;11.978;2023-02-19T12:50:25;97358.47;;;10.70;39.31
25350;BME280;13302;48.796;11.978;2023-02-19T12:56:45;97357.66;;;10.70;38.91
25350;BME280;13302;48.796;11.978;2023-02-19T12:59:41;97369.53;;;10.70;39.24
25350;BME280;13302;48.796;11.978;2023-02-19T13:02:52;97360.88;;;10.72;39.08
25350;BME280;13302;48.796;11.978;2023-02-19T13:05:48;97353.06;;;10.74;39.21
25350;BME280;13302;48.796;11.978;2023-02-19T13:08:50;97355.59;;;10.79;39.12
25350;BME280;13302;48.796;11.978;2023-02-19T13:11:57;97358.97;;;10.84;38.92
25350;BME280;13302;48.796;11.978;2023-02-19T13:14:48;97356.69;;;10.86;38.78
25350;BME280;13302;48.796;11.978;2023-02-19T13:20:34;97361.41;;;10.86;38.74
25350;BME280;13302;48.796;11.978;2023-02-19T13:23:25;97354.72;;;10.87;38.60
25350;BME280;13302;48.796;11.978;2023-02-19T13:30:09;97364.28;;;10.89;38.49
25350;BME280;13302;48.796;11.978;2023-02-19T13:33:20;97358.56;;;10.94;38.63
25350;BME280;13302;48.796;11.978;2023-02-19T13:36:12;97371.38;;;10.99;38.48
25350;BME280;13302;48.796;11.978;2023-02-19T13:39:03;97357.28;;;11.04;38.21
25350;BME280;13302;48.796;11.978;2023-02-19T13:41:53;97355.81;;;11.07;38.04
25350;BME280;13302;48.796;11.978;2023-02-19T13:44:46;97362.16;;;11.07;38.23
25350;BME280;13302;48.796;11.978;2023-02-19T13:50:40;97368.84;;;11.06;38.17
25350;BME280;13302;48.796;11.978;2023-02-19T13:59:34;97368.47;;;11.08;37.73
25350;BME280;13302;48.796;11.978;2023-02-19T14:05:09;97356.16;;;11.05;37.78
25350;BME280;13302;48.796;11.978;2023-02-19T14:07:56;97360.06;;;11.04;37.59
25350;BME280;13302;48.796;11.978;2023-02-19T14:10:55;97374.25;;;11.02;37.83
25350;BME280;13302;48.796;11.978;2023-02-19T14:28:28;97387.59;;;11.00;37.74
25350;BME280;13302;48.796;11.978;2023-02-19T14:31:29;97382.06;;;11.00;37.70
25350;BME280;13302;48.796;11.978;2023-02-19T14:34:22;97366.97;;;10.98;38.13
25350;BME280;13302;48.796;11.978;2023-02-19T14:37:17;97387.16;;;10.98;38.00
25350;BME280;13302;48.796;11.978;2023-02-19T14:40:05;97397.19;;;11.03;38.04
25350;BME280;13302;48.796;11.978;2023-02-19T14:42:54;97385.78;;;11.04;38.13
25350;BME280;13302;48.796;11.978;2023-02-19T14:45:48;97389.34;;;11.05;37.94
25350;BME280;13302;48.796;11.978;2023-02-19T14:48:42;97386.25;;;11.07;37.81
25350;BME280;13302;48.796;11.978;2023-02-19T14:51:38;97389.16;;;11.10;37.99
25350;BME280;13302;48.796;11.978;2023-02-19T14:54:47;97386.38;;;11.10;38.05
25350;BME280;13302;48.796;11.978;2023-02-19T14:57:40;97392.34;;;11.12;38.17
25350;BME280;13302;48.796;11.978;2023-02-19T15:00:33;97395.28;;;11.16;37.93
25350;BME280;13302;48.796;11.978;2023-02-19T15:03:33;97402.53;;;11.20;37.89
25350;BME280;13302;48.796;11.978;2023-02-19T15:06:20;97400.69;;;11.24;37.66
25350;BME280;13302;48.796;11.978;2023-02-19T15:09:11;97408.66;;;11.26;37.55
25350;BME280;13302;48.796;11.978;2023-02-19T15:11:59;97405.19;;;11.29;37.48
25350;BME280;13302;48.796;11.978;2023-02-19T15:14:47;97412.69;;;11.28;37.42
25350;BME280;13302;48.796;11.978;2023-02-19T15:17:37;97421.69;;;11.25;37.48
25350;BME280;13302;48.796;11.978;2023-02-19T15:20:34;97423.19;;;11.23;37.42
25350;BME280;13302;48.796;11.978;2023-02-19T15:23:23;97424.00;;;11.23;37.21
25350;BME280;13302;48.796;11.978;2023-02-19T15:26:23;97418.81;;;11.22;37.23
25350;BME280;13302;48.796;11.978;2023-02-19T15:29:15;97417.53;;;11.19;36.86
25350;BME280;13302;48.796;11.978;2023-02-19T15:32:15;97426.50;;;11.16;37.09
25350;BME280;13302;48.796;11.978;2023-02-19T15:35:03;97423.41;;;11.18;36.80
25350;BME280;13302;48.796;11.978;2023-02-19T15:37:51;97425.34;;;11.17;36.83
25350;BME280;13302;48.796;11.978;2023-02-19T15:40:43;97426.16;;;11.18;36.82
25350;BME280;13302;48.796;11.978;2023-02-19T15:43:45;97433.22;;;11.15;36.75
25350;BME280;13302;48.796;11.978;2023-02-19T15:46:36;97423.59;;;11.13;36.52
25350;BME280;13302;48.796;11.978;2023-02-19T15:49:33;97429.03;;;11.09;36.70
25350;BME280;13302;48.796;11.978;2023-02-19T15:52:40;97427.75;;;11.07;36.68
25350;BME280;13302;48.796;11.978;2023-02-19T15:55:51;97433.16;;;11.03;36.88
25350;BME280;13302;48.796;11.978;2023-02-19T15:58:48;97436.59;;;11.00;36.53
25350;BME280;13302;48.796;11.978;2023-02-19T16:01:37;97444.44;;;10.98;36.39
25350;BME280;13302;48.796;11.978;2023-02-19T16:04:25;97450.78;;;10.98;36.48
25350;BME280;13302;48.796;11.978;2023-02-19T16:07:25;97451.09;;;10.97;36.82
25350;BME280;13302;48.796;11.978;2023-02-19T16:10:17;97458.47;;;10.93;36.61
25350;BME280;13302;48.796;11.978;2023-02-19T16:13:05;97469.22;;;10.94;36.64
25350;BME280;13302;48.796;11.978;2023-02-19T16:16:18;97479.78;;;10.92;37.02
25350;BME280;13302;48.796;11.978;2023-02-19T16:19:08;97476.06;;;10.88;37.12
25350;BME280;13302;48.796;11.978;2023-02-19T16:21:56;97487.34;;;10.83;37.33
25350;BME280;13302;48.796;11.978;2023-02-19T16:24:46;97490.31;;;10.78;37.25